createdAt,value
2023-03-13T00:00:00.312Z,0
2023-03-13T00:05:00.363Z,0
2023-03-13T00:10:00.313Z,0
2023-03-13T00:15:00.291Z,0
2023-03-13T00:20:00.325Z,0
2023-03-13T00:25:00.303Z,0
2023-03-13T00:30:00.322Z,0
2023-03-13T00:35:00.303Z,0
2023-03-13T00:40:00.289Z,0
2023-03-13T00:45:00.298Z,0
2023-03-13T00:50:00.285Z,0
2023-03-13T00:55:00.293Z,0
2023-03-13T01:00:00.300Z,0
2023-03-13T01:05:00.325Z,0
2023-03-13T01:10:00.298Z,0
2023-03-13T01:15:00.322Z,0
2023-03-13T01:20:00.309Z,0
2023-03-13T01:25:00.306Z,0
2023-03-13T01:30:00.321Z,0
2023-03-13T01:35:00.341Z,0
2023-03-13T01:40:00.313Z,0
2023-03-13T01:45:01.746Z,0
2023-03-13T01:50:00.279Z,0
2023-03-13T01:55:00.312Z,0
2023-03-13T02:00:00.338Z,0
2023-03-13T02:05:00.304Z,0
2023-03-13T02:10:00.301Z,0
2023-03-13T02:15:00.296Z,0
2023-03-13T02:20:00.304Z,0
2023-03-13T02:25:00.284Z,0
2023-03-13T02:30:00.317Z,0
2023-03-13T02:35:00.310Z,0
2023-03-13T02:40:00.324Z,0
2023-03-13T02:45:00.299Z,0
2023-03-13T02:50:00.328Z,0
2023-03-13T02:55:00.296Z,0
2023-03-13T03:00:00.309Z,0
2023-03-13T03:05:00.358Z,0
2023-03-13T03:10:00.302Z,0
2023-03-13T03:15:00.323Z,0
2023-03-13T03:20:00.297Z,0
2023-03-13T03:25:00.322Z,0
2023-03-13T03:30:00.336Z,0
2023-03-13T03:35:00.308Z,0
2023-03-13T03:40:00.290Z,0
2023-03-13T03:45:00.306Z,0
2023-03-13T03:50:00.317Z,0
2023-03-13T03:55:00.314Z,0
2023-03-13T04:00:00.323Z,0
2023-03-13T04:05:00.304Z,0
2023-03-13T04:10:00.304Z,0
2023-03-13T04:15:00.329Z,0
2023-03-13T04:20:00.309Z,0
2023-03-13T04:25:00.312Z,0
2023-03-13T04:30:00.316Z,0
2023-03-13T04:35:00.437Z,0
2023-03-13T04:40:00.319Z,0
2023-03-13T04:45:00.326Z,0
2023-03-13T04:50:00.308Z,0
2023-03-13T04:55:00.314Z,0
2023-03-13T05:00:00.303Z,0
2023-03-13T05:05:00.432Z,0
2023-03-13T05:10:00.333Z,0
2023-03-13T05:15:00.299Z,0
2023-03-13T05:20:00.316Z,0
2023-03-13T05:25:00.319Z,0
2023-03-13T05:30:00.311Z,0
2023-03-13T05:35:00.314Z,0
2023-03-13T05:40:00.300Z,0
2023-03-13T05:45:00.315Z,0
2023-03-13T05:50:00.303Z,10
2023-03-13T05:55:00.317Z,31
2023-03-13T06:00:00.301Z,42
2023-03-13T06:05:00.381Z,49
2023-03-13T06:10:00.304Z,181
2023-03-13T06:15:00.330Z,253
2023-03-13T06:20:00.297Z,355
2023-03-13T06:25:00.322Z,422
2023-03-13T06:30:00.332Z,642
2023-03-13T06:35:00.296Z,566
2023-03-13T06:40:00.304Z,479
2023-03-13T06:45:00.296Z,479
2023-03-13T06:50:00.326Z,608
2023-03-13T06:55:00.338Z,707
2023-03-13T07:00:00.302Z,798
2023-03-13T07:05:00.306Z,1142
2023-03-13T07:10:00.302Z,1287
2023-03-13T07:15:00.313Z,1292
2023-03-13T07:20:00.421Z,1134
2023-03-13T07:25:00.316Z,1529
2023-03-13T07:30:00.329Z,1723
2023-03-13T07:35:00.351Z,1570
2023-03-13T07:40:00.309Z,1402
2023-03-13T07:45:00.326Z,1580
2023-03-13T07:50:00.383Z,1546
2023-03-13T07:55:00.330Z,2009
2023-03-13T08:00:00.301Z,1768
2023-03-13T08:05:00.296Z,1196
2023-03-13T08:10:00.315Z,1514
2023-03-13T08:15:00.310Z,1513
2023-03-13T08:20:00.313Z,3049
2023-03-13T08:25:00.312Z,2692
2023-03-13T08:30:00.291Z,1791
2023-03-13T08:35:00.289Z,2270
2023-03-13T08:40:00.316Z,2875
2023-03-13T08:45:00.290Z,2794
2023-03-13T08:50:00.314Z,3777
2023-03-13T08:55:00.323Z,3864
2023-03-13T09:00:00.310Z,3043
2023-03-13T09:05:00.320Z,3447
2023-03-13T09:10:00.312Z,3443
2023-03-13T09:15:00.296Z,3964
2023-03-13T09:20:01.310Z,4520
2023-03-13T09:25:00.311Z,2996
2023-03-13T09:30:00.334Z,3371
2023-03-13T09:35:00.317Z,4332
2023-03-13T09:40:00.327Z,4806
2023-03-13T09:45:00.331Z,9402
2023-03-13T09:50:00.329Z,9451
2023-03-13T09:55:00.307Z,8682
2023-03-13T10:00:00.312Z,6339
2023-03-13T10:05:00.317Z,5605
2023-03-13T10:10:00.311Z,6273
2023-03-13T10:15:00.302Z,11717
2023-03-13T10:20:00.321Z,12034
2023-03-13T10:25:00.294Z,10330
2023-03-13T10:30:00.304Z,7150
2023-03-13T10:35:00.332Z,6234
2023-03-13T10:40:00.326Z,6307
2023-03-13T10:45:00.358Z,7208
2023-03-13T10:50:00.298Z,6408
2023-03-13T10:55:00.315Z,10924
2023-03-13T11:00:01.982Z,9215
2023-03-13T11:05:00.307Z,8373
2023-03-13T11:10:00.321Z,12320
2023-03-13T11:15:00.404Z,11901
2023-03-13T11:20:00.303Z,11210
2023-03-13T11:25:00.325Z,7640
2023-03-13T11:30:00.432Z,13552
2023-03-13T11:35:00.315Z,14928
2023-03-13T11:40:00.318Z,11202
2023-03-13T11:45:00.302Z,12086
2023-03-13T11:50:00.324Z,10546
2023-03-13T11:55:00.314Z,10409
2023-03-13T12:00:00.300Z,12497
2023-03-13T12:05:00.346Z,13228
2023-03-13T12:10:00.332Z,11738
2023-03-13T12:15:00.375Z,7700
2023-03-13T12:20:00.346Z,5673
2023-03-13T12:25:00.340Z,20352
2023-03-13T12:30:00.313Z,6879
2023-03-13T12:35:00.302Z,17758
2023-03-13T12:40:00.325Z,24992
2023-03-13T12:45:00.319Z,26571
2023-03-13T12:50:00.316Z,29902
2023-03-13T12:55:00.333Z,35318
2023-03-13T13:00:00.342Z,34866
2023-03-13T13:05:00.332Z,37627
2023-03-13T13:10:00.326Z,40551
2023-03-13T13:15:00.317Z,12537
2023-03-13T13:20:00.332Z,45856
2023-03-13T13:25:00.314Z,46752
2023-03-13T13:30:00.308Z,49136
2023-03-13T13:35:00.308Z,48596
2023-03-13T13:40:00.383Z,13938
2023-03-13T13:45:00.313Z,11358
2023-03-13T13:50:00.345Z,43043
2023-03-13T13:55:00.305Z,56520
2023-03-13T14:00:00.361Z,55322
2023-03-13T14:05:00.426Z,58560
2023-03-13T14:10:00.320Z,9084
2023-03-13T14:15:00.313Z,9049
2023-03-13T14:20:00.330Z,62330
2023-03-13T14:25:00.344Z,60090
2023-03-13T14:30:00.304Z,17096
2023-03-13T14:35:00.317Z,62532
2023-03-13T14:40:00.315Z,59484
2023-03-13T14:45:00.317Z,61802
2023-03-13T14:50:00.340Z,61802
2023-03-13T14:55:00.303Z,61802
2023-03-13T15:00:00.398Z,61802
2023-03-13T15:05:00.450Z,61802
2023-03-13T15:10:00.334Z,24005
2023-03-13T15:15:00.323Z,58925
2023-03-13T15:20:00.312Z,13335
2023-03-13T15:25:06.508Z,52384
2023-03-13T15:30:00.327Z,61179
2023-03-13T15:35:00.298Z,30332
2023-03-13T15:40:00.330Z,54013
2023-03-13T15:45:00.295Z,60702
2023-03-13T15:50:00.316Z,56663
2023-03-13T15:55:00.308Z,54739
2023-03-13T16:00:00.316Z,54739
2023-03-13T16:05:00.313Z,54739
2023-03-13T16:10:00.308Z,48618
2023-03-13T16:15:00.309Z,47809
2023-03-13T16:20:00.309Z,8065
2023-03-13T16:25:00.306Z,7163
2023-03-13T16:30:00.316Z,6374
2023-03-13T16:35:00.337Z,6374
2023-03-13T16:40:00.330Z,5668
2023-03-13T16:45:00.308Z,5037
2023-03-13T16:50:00.305Z,5037
2023-03-13T16:55:00.348Z,4482
2023-03-13T17:00:00.332Z,3546
2023-03-13T17:05:00.313Z,3146
2023-03-13T17:10:00.368Z,2798
2023-03-13T17:15:00.328Z,2213
2023-03-13T17:20:00.317Z,1547
2023-03-13T17:25:00.296Z,1219
2023-03-13T17:30:00.301Z,850
2023-03-13T17:35:00.351Z,528
2023-03-13T17:40:00.442Z,377
2023-03-13T17:45:00.286Z,192
2023-03-13T17:50:00.384Z,98
2023-03-13T17:55:00.294Z,43
2023-03-13T18:00:00.427Z,22
2023-03-13T18:05:00.314Z,15
2023-03-13T18:10:00.311Z,8
2023-03-13T18:15:00.312Z,8
2023-03-13T18:20:00.357Z,8
2023-03-13T18:25:00.319Z,0
2023-03-13T18:30:00.300Z,0
2023-03-13T18:35:00.327Z,0
2023-03-13T18:40:00.299Z,0
2023-03-13T18:45:00.304Z,0
2023-03-13T18:50:00.305Z,0
2023-03-13T18:55:00.302Z,0
2023-03-13T19:00:00.346Z,0
2023-03-13T19:05:00.317Z,0
2023-03-13T19:10:00.377Z,0
2023-03-13T19:15:00.348Z,0
2023-03-13T19:20:00.349Z,0
2023-03-13T19:30:01.203Z,0
2023-03-13T19:35:00.574Z,0
2023-03-13T19:40:00.626Z,0
2023-03-13T19:45:00.596Z,0
2023-03-13T19:50:00.598Z,0
2023-03-13T19:55:02.146Z,0
2023-03-13T20:00:00.589Z,0
2023-03-13T20:05:00.605Z,0
2023-03-13T20:10:00.597Z,0
2023-03-13T20:15:00.677Z,0
2023-03-13T20:20:00.657Z,0
2023-03-13T20:25:00.698Z,0
2023-03-13T20:30:00.843Z,0
2023-03-13T20:35:00.640Z,0
2023-03-13T20:40:01.155Z,0
2023-03-13T20:45:00.649Z,0
2023-03-13T20:50:00.775Z,0
2023-03-13T20:55:00.940Z,0
2023-03-13T21:00:00.708Z,0
2023-03-13T21:05:01.017Z,0
2023-03-13T21:10:00.642Z,0
2023-03-13T21:15:00.698Z,0
2023-03-13T21:20:00.640Z,0
2023-03-13T21:25:00.667Z,0
2023-03-13T21:30:00.732Z,0
2023-03-13T21:35:00.907Z,0
2023-03-13T21:40:00.692Z,0
2023-03-13T21:45:00.680Z,0
2023-03-13T21:50:00.640Z,0
2023-03-13T21:55:00.646Z,0
2023-03-13T22:00:00.639Z,0
2023-03-13T22:05:00.639Z,0
2023-03-13T22:10:00.695Z,0
2023-03-13T22:15:01.366Z,0
2023-03-13T22:20:00.857Z,0
2023-03-13T22:25:00.847Z,0
2023-03-13T22:30:01.394Z,0
2023-03-13T22:35:00.802Z,0
2023-03-13T22:40:00.688Z,0
2023-03-13T22:45:00.754Z,0
2023-03-13T22:50:00.874Z,0
2023-03-13T22:55:00.644Z,0
2023-03-13T23:00:00.767Z,0
2023-03-13T23:05:00.833Z,0
2023-03-13T23:10:00.808Z,0
2023-03-13T23:15:00.714Z,0
2023-03-13T23:20:01.084Z,0
2023-03-13T23:25:00.623Z,0
2023-03-13T23:30:00.881Z,0
2023-03-13T23:35:00.710Z,0
2023-03-13T23:40:00.667Z,0
2023-03-13T23:45:00.647Z,0
2023-03-13T23:50:01.327Z,0
2023-03-13T23:55:00.622Z,0
